Kadena Air Base, Japan
Current Conditions -  °F | °C
As of 10:58 PM on Saturday 25 Oct 2014 (Local Time) from RODN Reporting Station
Overcast Overcast  
Wind Chill: 78°   Ceiling: 7000
Heat Index: 80°   Visibility: 10mi
Dew Point: 74°   Wind: 7mph
Humidity: 88%   Direction: 80°E
Pressure: 30.08"   Gusts: NA
Location:  26.37°N, 127.75°E
Report Text: RODN 251358Z AUTO 08006KT 10SM OVC070 26/23 A3008 RMK AO2 SLP191 T02550233 $
Loading
Personal Weather Stations






























Interactive Weather Map
Tropical Storm Tracking
New forecast layout! Learn more

10-Day Weather Forecast

Advertisements
Track Severe Weather on mobile